Aeroporto :
LOGIN :

Iscrizione | Disclaimer

   EN    FR    IT 

 










Sommario :    VFR   VFR Marginale   IFR   IFR Intensivo   IFR Molto Intensivo
Visibilità : 
Base nubi : 
>= 8 km
>= 3000ft
5 / 8 km
1000 / 3000 ft
1500m / 5 km
500 / 1000 ft
800 / 1500m
200 / 500 ft
< 800m
< 200 ft
Simboli :   Temporali  Nebbia  Neve Forte  Precipitazioni Forti  Vento > 20 kt
SIGMETs :   Varie  Temporali  Ghiacco  Turbolenza  Onda orograficha  Ceneri Vulcaniche







- Altitudine del aeroporto : 788 ft
- Codice IATA : DCM
- Carte del aeroporto


LFCK - Castres-Mazamet

ULTIMO METAR :
  • 130200Z AUTO 08005KT CAVOK 04/03 Q1012

METARs OBSOLETI :
  • 130130Z AUTO 08006KT CAVOK 04/03 Q1012
  • 130100Z AUTO 07005KT CAVOK 04/03 Q1013
  • 130030Z AUTO 07005KT CAVOK 04/03 Q1013
  • 130000Z AUTO 09006KT CAVOK 03/03 Q1014
  • 122330Z AUTO 11004KT CAVOK 03/03 Q1014

TAF AMD TAF LFCK
Valido dal 12 a 19 ore il 13 a 03 ore UTC


121909Z 1219/1303 VRB02KT 9999 BKN019
TEMPO 1219/1223 3000 BR BKN005
PROB40
TEMPO 1219/1223 0800 FG VV///
BECMG 1223/1301 CAVOK
Nessun NOTAM noto per questo aeroporto.



MetMap, La meteo Aeronautica in un colpo d'occhio ! - Copyright ORBIFLY Dicembre 2007 - Disclaimer

ORBIFLY MET'MAP TEAM :

Programmazione e sviluppo : Alexandra Zaïnal
Concezione e sviluppo : Baudouin d'Aumeries
Co-Programmazione e sviluppo : Marc-Olivier Méhu
Supporto tecnico e logistico : Manuel Goepfert
Aiuto per la traduzione : Arnaldo La Scala

Contatto : metmap@orbifly.com




FONTI E CREDITI :

   NOAA